Time;durP1;ratioP1;P1;durP2;ratioP2;P2;SDS_P1;SDS_P2;PMS_P1;PMS_P2;Temp;Humidity;BMP_temperature;BMP_pressure;BME280_temperature;BME280_humidity;BME280_pressure;Samples;Min_cycle;Max_cycle;Signal;HPM_P1;HPM_P2
2022/05/04 00:01:57;;;;;;;51.45;12.57;;;;;;;8.16;100.00;101938.75;5205530;28;20025;-70
2022/05/04 00:04:27;;;;;;;33.05;11.88;;;;;;;8.15;100.00;101932.56;5205343;28;20022;-69
2022/05/04 00:06:58;;;;;;;26.05;11.63;;;;;;;8.08;100.00;101931.34;5205300;28;20033;-69
2022/05/04 00:09:28;;;;;;;29.38;11.02;;;;;;;8.04;100.00;101929.91;5205093;28;20113;-69
2022/05/04 00:11:58;;;;;;;32.58;11.40;;;;;;;7.96;100.00;101940.34;5204344;28;20474;-69
2022/05/04 00:14:29;;;;;;;28.08;10.35;;;;;;;7.94;100.00;101939.63;5204972;28;20032;-69
2022/05/04 00:16:59;;;;;;;30.00;10.57;;;;;;;7.94;100.00;101935.13;5205420;28;20028;-69
2022/05/04 00:19:30;;;;;;;25.58;10.70;;;;;;;7.89;100.00;101944.50;5205355;28;20108;-69
2022/05/04 00:22:00;;;;;;;35.53;13.38;;;;;;;7.85;100.00;101935.88;5204839;28;20056;-69
2022/05/04 00:24:31;;;;;;;23.98;10.38;;;;;;;7.79;100.00;101937.22;5205200;28;20022;-70
2022/05/04 00:27:01;;;;;;;24.10;11.57;;;;;;;7.72;100.00;101937.81;5205374;28;20025;-70
2022/05/04 00:29:32;;;;;;;21.63;10.45;;;;;;;7.64;100.00;101933.06;5205020;28;20360;-70
2022/05/04 00:32:02;;;;;;;32.92;12.43;;;;;;;7.58;100.00;101938.03;5205016;28;20031;-70
2022/05/04 00:34:33;;;;;;;31.77;11.73;;;;;;;7.50;100.00;101939.50;5204577;28;20100;-70
2022/05/04 00:37:04;;;;;;;33.50;11.57;;;;;;;7.45;100.00;101941.66;5203924;28;20095;-69
2022/05/04 00:39:35;;;;;;;27.15;10.93;;;;;;;7.40;100.00;101932.31;5203483;28;20033;-69
2022/05/04 00:42:21;;;;;;;28.88;10.88;;;;;;;7.47;100.00;101936.19;5205023;28;20056;-70
2022/05/04 00:44:52;;;;;;;21.85;9.60;;;;;;;7.46;100.00;101938.03;5192210;28;20033;-69
2022/05/04 00:47:22;;;;;;;30.73;11.85;;;;;;;7.43;100.00;101940.94;5204720;28;20258;-69
2022/05/04 00:49:54;;;;;;;22.40;10.00;;;;;;;7.40;100.00;101945.66;5205029;28;20037;-70
2022/05/04 00:52:24;;;;;;;29.55;11.43;;;;;;;7.37;100.00;101944.06;5204691;28;20048;-69
2022/05/04 00:54:55;;;;;;;26.42;10.35;;;;;;;7.34;100.00;101939.00;5204360;28;20022;-69
2022/05/04 01:00:16;;;;;;;29.10;10.93;;;;;;;7.32;100.00;101940.06;5204606;28;20097;-69
2022/05/04 01:02:46;;;;;;;25.80;10.80;;;;;;;7.28;100.00;101944.81;5204884;28;20360;-69
2022/05/04 01:05:17;;;;;;;35.58;11.98;;;;;;;7.27;100.00;101933.25;5204555;28;20048;-70
2022/05/04 01:07:48;;;;;;;25.13;11.35;;;;;;;7.29;100.00;101932.31;5211757;28;20021;-69
2022/05/04 01:10:23;;;;;;;30.75;11.98;;;;;;;7.29;100.00;101935.81;5204772;28;20032;-69
2022/05/04 01:12:54;;;;;;;28.23;11.60;;;;;;;7.31;100.00;101933.03;5204522;28;20029;-70
2022/05/04 01:15:25;;;;;;;25.98;11.25;;;;;;;7.38;100.00;101924.44;5204069;28;20079;-69
2022/05/04 01:17:56;;;;;;;32.90;10.95;;;;;;;7.48;100.00;101932.56;5204286;28;20030;-68
2022/05/04 01:20:27;;;;;;;25.15;10.38;;;;;;;7.53;100.00;101931.25;5203981;28;20028;-69
2022/05/04 01:23:05;;;;;;;27.52;11.23;;;;;;;7.55;100.00;101924.94;5204475;28;20108;-69
2022/05/04 01:25:35;;;;;;;27.00;10.90;;;;;;;7.57;100.00;101921.16;5204161;28;20100;-69
2022/05/04 01:28:06;;;;;;;27.95;11.18;;;;;;;7.63;100.00;101922.50;5204486;28;20138;-70
2022/05/04 01:30:36;;;;;;;25.02;11.27;;;;;;;7.67;100.00;101927.47;5203866;28;20064;-70
2022/05/04 01:33:07;;;;;;;28.23;10.75;;;;;;;7.72;100.00;101925.28;5204104;28;20017;-69
2022/05/04 01:35:38;;;;;;;25.75;12.65;;;;;;;7.77;100.00;101917.75;5204150;28;20032;-69
2022/05/04 01:38:09;;;;;;;29.95;12.10;;;;;;;7.84;100.00;101927.97;5195173;28;20039;-69
2022/05/04 01:40:39;;;;;;;31.95;11.45;;;;;;;7.89;100.00;101921.28;5197308;28;20021;-70
2022/05/04 01:43:10;;;;;;;25.65;11.13;;;;;;;7.96;100.00;101922.50;5203741;28;20218;-70
2022/05/04 01:45:40;;;;;;;35.83;11.43;;;;;;;7.99;100.00;101924.94;5203806;28;20033;-70
2022/05/04 01:48:11;;;;;;;26.48;11.10;;;;;;;8.06;100.00;101925.28;5204237;28;20030;-70
2022/05/04 01:50:42;;;;;;;25.33;11.68;;;;;;;8.12;100.00;101927.44;5203762;28;20036;-70
2022/05/04 01:53:13;;;;;;;23.42;11.23;;;;;;;8.19;100.00;101933.16;5203927;28;20029;-69
2022/05/04 01:55:45;;;;;;;24.73;10.77;;;;;;;8.23;100.00;101929.25;5203383;28;20440;-70
2022/05/04 01:58:16;;;;;;;33.22;11.40;;;;;;;8.25;100.00;101921.97;5204083;28;20028;-69
2022/05/04 02:00:46;;;;;;;31.05;11.23;;;;;;;8.27;100.00;101920.84;5203835;28;20017;-69
2022/05/04 02:03:17;;;;;;;29.42;10.68;;;;;;;8.29;100.00;101923.44;5204176;28;20068;-70
2022/05/04 02:05:48;;;;;;;27.13;11.80;;;;;;;8.30;100.00;101923.28;5204025;28;20029;-69
2022/05/04 02:08:18;;;;;;;24.17;10.98;;;;;;;8.31;100.00;101919.63;5203737;28;20032;-69
2022/05/04 02:10:49;;;;;;;46.25;13.90;;;;;;;8.35;100.00;101930.09;5203604;28;20033;-69
2022/05/04 02:13:20;;;;;;;26.73;11.10;;;;;;;8.40;100.00;101922.56;5203932;28;20029;-70
2022/05/04 02:15:51;;;;;;;27.17;11.40;;;;;;;8.45;100.00;101928.41;5203673;28;20033;-70
2022/05/04 02:18:21;;;;;;;27.35;10.55;;;;;;;8.46;100.00;101919.38;5203518;28;20553;-70
2022/05/04 02:20:52;;;;;;;28.95;10.38;;;;;;;8.49;100.00;101920.00;5207389;28;20032;-71
2022/05/04 02:23:22;;;;;;;25.58;10.55;;;;;;;8.49;100.00;101909.28;5207874;28;20060;-70
2022/05/04 02:25:53;;;;;;;29.25;10.32;;;;;;;8.48;100.00;101918.31;5207661;28;20025;-71
2022/05/04 02:28:23;;;;;;;21.33;9.65;;;;;;;8.49;100.00;101914.66;5207868;28;20035;-70
2022/05/04 02:30:54;;;;;;;24.80;10.15;;;;;;;8.51;100.00;101918.03;5207425;28;20395;-70
2022/05/04 02:33:25;;;;;;;19.42;9.48;;;;;;;8.51;100.00;101912.69;5207713;28;20018;-69
2022/05/04 02:38:44;;;;;;;28.58;10.07;;;;;;;8.59;100.00;101909.38;5206524;28;20037;-70
2022/05/04 02:41:14;;;;;;;29.30;11.52;;;;;;;8.63;100.00;101912.63;5207068;28;20021;-70
2022/05/04 02:43:45;;;;;;;22.77;9.70;;;;;;;8.53;100.00;101916.09;5207360;28;20683;-70
2022/05/04 02:46:17;;;;;;;25.83;9.18;;;;;;;8.53;100.00;101913.44;5207180;28;20029;-69
2022/05/04 02:48:48;;;;;;;17.77;8.52;;;;;;;8.48;100.00;101912.97;5207304;28;20032;-70
2022/05/04 02:51:19;;;;;;;22.17;9.85;;;;;;;8.48;100.00;101907.59;5207150;28;20076;-69
2022/05/04 02:53:50;;;;;;;19.55;9.05;;;;;;;8.48;100.00;101904.94;5206819;28;20029;-70
2022/05/04 02:56:20;;;;;;;22.38;9.43;;;;;;;8.41;100.00;101911.75;5207061;28;20029;-70
2022/05/04 02:58:53;;;;;;;21.17;9.40;;;;;;;8.37;100.00;101914.78;5207100;28;20018;-70
2022/05/04 03:04:12;;;;;;;25.77;9.18;;;;;;;8.35;100.00;101901.53;5206647;28;20034;-71
2022/05/04 03:06:43;;;;;;;24.02;9.35;;;;;;;8.34;100.00;101902.50;5214538;28;20025;-71
2022/05/04 03:09:13;;;;;;;25.40;9.48;;;;;;;8.34;100.00;101897.16;5206799;28;20037;-70
2022/05/04 03:11:55;;;;;;;24.42;9.63;;;;;;;8.33;100.00;101895.44;5206779;28;20026;-70
2022/05/04 03:14:28;;;;;;;25.92;10.27;;;;;;;8.30;100.00;101896.56;5206502;28;20018;-70
2022/05/04 03:16:59;;;;;;;27.58;10.02;;;;;;;8.28;100.00;101890.50;5206901;28;20080;-70
2022/05/04 03:19:29;;;;;;;20.70;9.15;;;;;;;8.27;100.00;101895.94;5206619;28;20487;-70
2022/05/04 03:21:59;;;;;;;26.17;9.43;;;;;;;8.24;100.00;101890.88;5206586;28;20029;-69
2022/05/04 03:24:30;;;;;;;24.27;9.85;;;;;;;8.20;100.00;101889.41;5206881;28;20057;-69
2022/05/04 03:27:01;;;;;;;25.30;9.60;;;;;;;8.18;100.00;101886.00;5206695;28;20033;-69
2022/05/04 03:29:31;;;;;;;24.95;8.90;;;;;;;8.12;100.00;101889.19;5206153;28;20056;-69
2022/05/04 03:32:03;;;;;;;18.95;8.82;;;;;;;8.02;100.00;101879.22;5205157;28;20160;-69
2022/05/04 03:34:34;;;;;;;18.67;8.70;;;;;;;7.98;100.00;101890.28;5206356;28;20037;-68
2022/05/04 03:37:04;;;;;;;21.92;9.55;;;;;;;7.96;100.00;101895.78;5206835;28;20030;-68
2022/05/04 03:39:35;;;;;;;23.35;8.82;;;;;;;8.01;100.00;101898.06;5191362;28;20101;-69
2022/05/04 03:42:06;;;;;;;23.88;9.93;;;;;;;8.01;100.00;101888.22;5206520;28;20068;-69
2022/05/04 03:44:36;;;;;;;29.48;9.23;;;;;;;7.94;100.00;101884.38;5206091;28;20056;-69
2022/05/04 03:47:07;;;;;;;23.60;8.30;;;;;;;7.87;100.00;101884.97;5206507;28;20474;-68
2022/05/04 03:49:37;;;;;;;21.05;8.60;;;;;;;7.82;100.00;101893.34;5206310;28;20439;-68
2022/05/04 03:52:09;;;;;;;24.30;8.75;;;;;;;7.82;100.00;101893.34;5206161;28;20021;-70
2022/05/04 03:54:39;;;;;;;23.88;8.60;;;;;;;7.84;100.00;101883.41;5206064;28;20477;-69
2022/05/04 03:57:10;;;;;;;22.27;8.98;;;;;;;7.79;100.00;101885.59;5206127;28;20029;-69
2022/05/04 03:59:40;;;;;;;26.13;9.05;;;;;;;7.66;100.00;101882.19;5206216;28;20073;-69
2022/05/04 04:02:11;;;;;;;23.83;8.55;;;;;;;7.49;100.00;101880.88;5205946;28;20041;-70
2022/05/04 04:04:41;;;;;;;24.42;9.02;;;;;;;7.36;100.00;101880.97;5205503;28;20049;-69
2022/05/04 04:07:12;;;;;;;25.73;9.45;;;;;;;7.25;100.00;101883.66;5214040;28;20022;-69
2022/05/04 04:09:42;;;;;;;31.40;9.82;;;;;;;7.13;100.00;101888.13;5206037;28;20087;-69
2022/05/04 04:12:13;;;;;;;20.55;9.25;;;;;;;6.99;100.00;101885.66;5205633;28;20113;-69
2022/05/04 04:14:43;;;;;;;24.10;10.02;;;;;;;6.77;100.00;101885.59;5205229;28;20609;-69
2022/05/04 04:17:14;;;;;;;24.20;9.82;;;;;;;6.58;100.00;101887.00;5205413;28;20542;-69
2022/05/04 04:19:44;;;;;;;25.92;9.27;;;;;;;6.43;100.00;101883.66;5205600;28;20390;-69
2022/05/04 04:22:15;;;;;;;26.60;9.93;;;;;;;6.33;100.00;101885.31;5205653;28;20430;-69
2022/05/04 04:24:45;;;;;;;29.95;10.68;;;;;;;6.27;100.00;101885.72;5205173;28;20113;-69
2022/05/04 04:27:15;;;;;;;30.50;9.65;;;;;;;6.31;100.00;101881.88;5205292;28;20057;-69
2022/05/04 04:29:46;;;;;;;27.38;10.20;;;;;;;6.34;100.00;101888.81;5204972;28;20057;-69
2022/05/04 04:32:16;;;;;;;28.67;10.05;;;;;;;6.33;100.00;101897.78;5205281;28;20113;-69
2022/05/04 04:34:48;;;;;;;30.60;9.00;;;;;;;6.28;100.00;101892.78;5205034;28;20022;-69
2022/05/04 04:37:18;;;;;;;27.23;9.02;;;;;;;6.22;100.00;101890.53;5203838;28;20025;-69
2022/05/04 04:39:49;;;;;;;20.80;9.23;;;;;;;6.15;100.00;101897.28;5190756;28;20098;-68
2022/05/04 04:42:19;;;;;;;27.05;10.02;;;;;;;6.11;100.00;101906.47;5204379;28;20025;-69
2022/05/04 04:44:50;;;;;;;24.45;9.77;;;;;;;6.08;100.00;101896.91;5204973;28;20014;-70
2022/05/04 04:47:20;;;;;;;28.90;10.77;;;;;;;6.08;100.00;101912.03;5204965;28;20056;-69
2022/05/04 04:49:54;;;;;;;33.50;10.90;;;;;;;6.09;100.00;101906.59;5204859;28;20032;-68
2022/05/04 04:52:25;;;;;;;30.60;11.05;;;;;;;6.13;100.00;101907.22;5204707;28;20498;-68
2022/05/04 04:54:55;;;;;;;28.20;10.05;;;;;;;6.18;100.00;101913.06;5204529;28;20029;-69
2022/05/04 04:57:26;;;;;;;36.10;11.23;;;;;;;6.24;100.00;101907.28;5204734;28;20021;-69
2022/05/04 04:59:56;;;;;;;29.20;10.70;;;;;;;6.31;100.00;101905.88;5204907;28;20482;-69
2022/05/04 05:02:26;;;;;;;28.02;8.93;;;;;;;6.39;100.00;101908.81;5204577;28;20445;-68
2022/05/04 05:04:57;;;;;;;27.95;10.38;;;;;;;6.47;100.00;101909.09;5204914;28;20432;-68
2022/05/04 05:07:28;;;;;;;28.70;10.25;;;;;;;6.56;100.00;101912.06;5204810;28;20459;-69
2022/05/04 05:09:58;;;;;;;31.65;10.07;;;;;;;6.74;100.00;101908.00;5204842;28;20108;-69
2022/05/04 05:12:29;;;;;;;27.80;10.60;;;;;;;6.92;100.00;101913.75;5204624;28;20040;-68
2022/05/04 05:17:48;;;;;;;26.55;10.20;;;;;;;7.09;100.00;101917.81;5204368;28;20029;-69
2022/05/04 05:20:19;;;;;;;21.50;9.60;;;;;;;7.18;100.00;101917.13;5204270;28;20032;-68
2022/05/04 05:22:49;;;;;;;28.15;9.05;;;;;;;7.23;100.00;101922.97;5204270;28;20044;-68
2022/05/04 05:25:20;;;;;;;21.02;8.48;;;;;;;7.35;100.00;101919.31;5204200;28;20061;-68
2022/05/04 05:27:50;;;;;;;24.73;8.50;;;;;;;7.44;100.00;101917.78;5204131;28;20029;-68
2022/05/04 05:30:21;;;;;;;28.73;9.93;;;;;;;7.55;100.00;101919.59;5204051;28;20040;-69
2022/05/04 05:32:51;;;;;;;22.50;8.48;;;;;;;7.56;100.00;101921.28;5202831;28;20079;-69
2022/05/04 05:35:23;;;;;;;26.95;9.35;;;;;;;7.57;100.00;101920.31;5204290;28;20600;-68
2022/05/04 05:37:53;;;;;;;28.00;10.40;;;;;;;7.58;100.00;101920.22;5197626;28;20054;-68
2022/05/04 05:40:24;;;;;;;27.02;9.52;;;;;;;7.65;100.00;101921.41;5195494;28;20061;-68
2022/05/04 05:42:54;;;;;;;33.60;8.82;;;;;;;7.74;100.00;101922.53;5203838;28;20433;-68
2022/05/04 05:45:25;;;;;;;22.88;9.20;;;;;;;7.93;100.00;101921.88;5203886;28;20032;-68
2022/05/04 05:47:55;;;;;;;23.50;9.30;;;;;;;8.16;100.00;101930.72;5204050;28;20032;-69
2022/05/04 05:50:26;;;;;;;25.85;8.60;;;;;;;8.29;100.00;101918.06;5203926;28;20026;-69
2022/05/04 05:52:56;;;;;;;20.77;8.90;;;;;;;8.42;100.00;101924.13;5203740;28;20501;-68
2022/05/04 05:55:27;;;;;;;22.42;9.88;;;;;;;8.62;100.00;101917.13;5203301;28;20108;-70
2022/05/04 05:57:59;;;;;;;21.15;8.88;;;;;;;8.99;100.00;101922.09;5203940;28;20021;-69
2022/05/04 06:00:29;;;;;;;32.85;9.93;;;;;;;9.27;100.00;101926.78;5203864;28;20079;-69
2022/05/04 06:02:59;;;;;;;26.05;9.93;;;;;;;9.53;100.00;101923.69;5203837;28;20503;-69
2022/05/04 06:05:30;;;;;;;23.67;9.63;;;;;;;9.73;100.00;101922.78;5203590;28;20106;-69
2022/05/04 06:08:00;;;;;;;28.15;9.25;;;;;;;9.86;100.00;101922.56;5203792;28;20479;-68
2022/05/04 06:10:31;;;;;;;25.17;9.50;;;;;;;10.03;100.00;101921.06;5203855;28;20045;-70
2022/05/04 06:13:02;;;;;;;25.08;8.77;;;;;;;10.48;100.00;101924.16;5203747;28;20368;-70
2022/05/04 06:15:33;;;;;;;26.90;9.18;;;;;;;10.87;100.00;101930.41;5203492;28;20505;-69
2022/05/04 06:18:04;;;;;;;21.20;8.27;;;;;;;11.12;100.00;101926.28;5203297;28;20064;-70
2022/05/04 06:20:34;;;;;;;17.02;7.22;;;;;;;11.29;100.00;101930.06;5202699;28;20499;-69
2022/05/04 06:23:05;;;;;;;14.57;7.18;;;;;;;11.55;100.00;101930.28;5203701;28;20033;-69
2022/05/04 06:25:36;;;;;;;23.05;7.50;;;;;;;11.82;100.00;101931.34;5205479;28;20055;-69
2022/05/04 06:28:06;;;;;;;18.52;7.43;;;;;;;11.88;100.00;101928.06;5203983;28;20036;-69
2022/05/04 06:36:15;;;;;;;18.95;7.00;;;;;;;12.50;100.00;101937.22;5203461;28;20029;-70
2022/05/04 06:38:45;;;;;;;17.15;7.45;;;;;;;12.47;100.00;101940.19;5190847;28;20399;-70
2022/05/04 06:41:16;;;;;;;22.52;7.32;;;;;;;12.32;100.00;101933.63;5201947;28;20092;-69
2022/05/04 06:43:46;;;;;;;19.70;6.80;;;;;;;12.14;100.00;101930.91;5203813;28;20025;-69
2022/05/04 06:46:17;;;;;;;17.83;7.63;;;;;;;12.32;100.00;101941.72;5203260;28;20071;-69
2022/05/04 06:48:47;;;;;;;25.55;7.85;;;;;;;12.43;100.00;101933.41;5203825;28;20030;-70
2022/05/04 06:51:17;;;;;;;19.02;7.60;;;;;;;13.27;100.00;101937.59;5203113;28;20025;-70
2022/05/04 06:53:48;;;;;;;24.63;7.85;;;;;;;14.10;100.00;101933.31;5203298;28;20108;-70
2022/05/04 06:56:18;;;;;;;22.58;7.00;;;;;;;14.30;100.00;101930.34;5203210;28;20030;-70
2022/05/04 06:58:49;;;;;;;19.23;7.70;;;;;;;14.81;100.00;101931.13;5203253;28;20025;-70
2022/05/04 07:01:19;;;;;;;24.75;8.15;;;;;;;14.97;100.00;101928.47;5203255;28;20017;-71
2022/05/04 07:03:50;;;;;;;20.85;7.60;;;;;;;15.22;100.00;101938.25;5200168;28;20040;-71
2022/05/04 07:06:21;;;;;;;20.33;6.78;;;;;;;15.33;100.00;101931.63;5195710;28;20026;-71
2022/05/04 07:08:52;;;;;;;20.90;7.75;;;;;;;15.41;100.00;101930.75;5205014;28;20120;-71
2022/05/04 07:11:22;;;;;;;12.77;7.40;;;;;;;15.68;100.00;101930.41;5205022;28;20529;-71
2022/05/04 07:13:53;;;;;;;26.67;7.82;;;;;;;15.97;100.00;101932.53;5204994;28;20034;-71
2022/05/04 07:16:23;;;;;;;19.70;7.28;;;;;;;16.27;100.00;101928.16;5203718;28;20033;-71
2022/05/04 07:18:54;;;;;;;16.40;7.72;;;;;;;16.26;98.10;101931.00;5204082;28;20120;-71
2022/05/04 07:21:24;;;;;;;17.55;7.38;;;;;;;16.67;93.64;101931.63;5207993;28;20340;-71
2022/05/04 07:23:55;;;;;;;19.15;8.32;;;;;;;16.60;99.24;101936.06;5214582;28;20360;-71
2022/05/04 07:26:25;;;;;;;23.77;8.35;;;;;;;16.22;100.00;101933.25;5207020;28;20646;-71
2022/05/04 07:28:56;;;;;;;21.70;7.10;;;;;;;16.68;95.87;101937.88;5215295;28;20025;-71
2022/05/04 07:31:26;;;;;;;16.88;6.88;;;;;;;17.19;95.78;101943.59;5214560;28;20025;-71
2022/05/04 07:33:56;;;;;;;18.60;6.97;;;;;;;17.75;87.84;101946.81;5217548;28;20109;-71
2022/05/04 07:36:27;;;;;;;17.42;7.70;;;;;;;17.89;81.06;101945.13;5204483;28;20060;-71
2022/05/04 07:38:57;;;;;;;19.08;7.82;;;;;;;18.24;81.18;101955.19;5208394;28;20028;-71
2022/05/04 07:44:17;;;;;;;15.32;6.70;;;;;;;17.69;77.99;101950.22;5205798;28;20471;-71
2022/05/04 07:46:48;;;;;;;20.80;7.30;;;;;;;17.54;81.32;101948.34;5216803;28;20032;-71
2022/05/04 07:49:19;;;;;;;18.17;7.85;;;;;;;17.79;80.24;101954.38;5208579;28;20025;-71
2022/05/04 07:51:49;;;;;;;17.42;7.63;;;;;;;17.32;85.40;101952.81;5204319;28;20033;-72
2022/05/04 07:54:20;;;;;;;19.10;7.72;;;;;;;18.14;79.50;101945.66;5212028;28;20276;-71
2022/05/04 07:56:52;;;;;;;15.52;7.15;;;;;;;18.07;77.88;101941.00;5205433;28;20024;-71
2022/05/04 07:59:23;;;;;;;21.58;7.70;;;;;;;18.94;79.03;101945.53;5202135;28;20083;-72
2022/05/04 08:04:42;;;;;;;19.25;9.10;;;;;;;19.17;67.86;101942.59;5212343;28;20017;-71
2022/05/04 08:07:13;;;;;;;15.80;7.38;;;;;;;19.98;60.46;101945.69;5207732;28;20033;-71
2022/05/04 08:09:43;;;;;;;16.33;8.15;;;;;;;18.69;62.79;101944.25;5212248;28;20083;-71
2022/05/04 08:12:14;;;;;;;18.30;8.73;;;;;;;17.50;66.75;101948.91;5203017;28;20025;-71
2022/05/04 08:14:44;;;;;;;19.60;8.95;;;;;;;16.23;81.42;101940.34;5208382;28;20029;-71
2022/05/04 08:17:15;;;;;;;21.33;8.63;;;;;;;16.49;85.86;101945.44;5208346;28;20025;-71
2022/05/04 08:19:45;;;;;;;24.65;11.50;;;;;;;17.14;82.46;101948.75;5212503;28;20162;-71
2022/05/04 08:22:15;;;;;;;22.83;11.43;;;;;;;17.92;79.28;101936.59;5203832;28;20033;-71
2022/05/04 08:24:46;;;;;;;22.65;11.43;;;;;;;18.46;73.06;101939.78;5210163;28;20022;-71
2022/05/04 08:27:16;;;;;;;25.20;12.75;;;;;;;18.83;74.41;101944.19;5209272;28;20074;-71
2022/05/04 08:29:47;;;;;;;22.95;9.65;;;;;;;20.51;60.87;101936.91;5211131;28;20483;-71
2022/05/04 08:32:18;;;;;;;19.70;10.15;;;;;;;20.46;58.07;101948.41;5210770;28;20021;-71
2022/05/04 08:34:48;;;;;;;22.88;13.00;;;;;;;19.48;63.74;101939.50;5211814;28;20024;-71
2022/05/04 08:37:19;;;;;;;32.35;14.07;;;;;;;19.18;68.28;101938.84;5206525;28;20052;-71
2022/05/04 08:39:49;;;;;;;28.60;15.48;;;;;;;19.72;66.06;101937.38;5206870;28;20048;-71
2022/05/04 08:42:20;;;;;;;27.23;14.02;;;;;;;19.53;62.50;101944.31;5208420;28;20513;-72
2022/05/04 08:44:55;;;;;;;35.03;15.77;;;;;;;19.24;64.63;101935.34;5212292;28;20517;-71
2022/05/04 08:47:30;;;;;;;28.48;15.93;;;;;;;18.60;61.92;101933.44;5208515;28;20167;-71
2022/05/04 08:50:02;;;;;;;31.00;14.27;;;;;;;19.67;65.53;101944.25;5200585;28;20014;-72
2022/05/04 08:52:34;;;;;;;22.92;12.13;;;;;;;20.72;57.47;101928.56;5210937;28;20051;-71
2022/05/04 08:55:06;;;;;;;22.38;13.32;;;;;;;20.37;59.10;101925.94;5210384;28;20366;-72
2022/05/04 08:57:38;;;;;;;27.60;12.98;;;;;;;19.44;59.57;101930.06;5216181;28;20064;-72
2022/05/04 09:00:10;;;;;;;26.15;14.10;;;;;;;19.91;62.77;101926.59;5215358;28;20029;-72
2022/05/04 09:02:41;;;;;;;26.63;12.63;;;;;;;19.81;63.04;101934.28;5203997;28;20108;-72
2022/05/04 09:05:15;;;;;;;25.05;12.85;;;;;;;20.57;65.15;101923.28;5206587;28;20052;-72
2022/05/04 09:07:49;;;;;;;23.63;11.88;;;;;;;20.51;61.52;101929.56;5207895;28;20017;-72
2022/05/04 09:10:22;;;;;;;28.87;11.20;;;;;;;20.25;57.67;101927.56;5208476;28;20033;-72
2022/05/04 09:12:54;;;;;;;18.70;10.82;;;;;;;20.27;60.44;101925.47;5203165;28;20282;-72
2022/05/04 09:15:27;;;;;;;29.40;13.40;;;;;;;20.00;60.86;101921.81;5204384;28;20029;-72
2022/05/04 09:18:01;;;;;;;24.23;11.93;;;;;;;21.52;52.57;101923.97;5199938;28;20079;-72
2022/05/04 09:23:29;;;;;;;29.02;12.10;;;;;;;20.58;56.48;101914.09;5207920;28;20441;-72
2022/05/04 09:26:02;;;;;;;19.92;9.80;;;;;;;21.13;54.39;101922.09;5207108;28;20018;-72
2022/05/04 09:28:34;;;;;;;21.83;11.35;;;;;;;20.88;56.90;101920.00;5211706;28;20490;-72
2022/05/04 09:31:07;;;;;;;23.48;10.30;;;;;;;20.85;57.11;101916.84;5205773;28;20524;-72
2022/05/04 09:33:38;;;;;;;31.58;11.43;;;;;;;20.99;53.98;101917.69;5211136;28;20025;-72
2022/05/04 09:36:11;;;;;;;19.33;10.80;;;;;;;20.56;53.41;101916.16;5200840;28;20064;-72
2022/05/04 09:47:28;;;;;;;30.10;11.05;;;;;;;21.03;52.83;101918.94;5203033;28;20021;-71
2022/05/04 09:50:03;;;;;;;28.65;11.40;;;;;;;20.56;60.28;101909.88;5217441;28;20051;-72
2022/05/04 09:52:48;;;;;;;30.70;12.27;;;;;;;20.35;60.95;101922.56;5205268;28;20017;-71
2022/05/04 09:55:24;;;;;;;21.90;11.23;;;;;;;21.04;55.12;101912.47;5207112;28;20025;-72
2022/05/04 09:57:56;;;;;;;28.77;11.80;;;;;;;21.01;54.41;101910.13;5211584;28;20487;-72
2022/05/04 10:00:27;;;;;;;22.95;11.90;;;;;;;20.23;54.01;101913.34;5212086;28;20048;-71
2022/05/04 10:02:58;;;;;;;22.35;12.32;;;;;;;19.91;57.77;101912.13;5207503;28;20013;-72
2022/05/04 10:05:29;;;;;;;28.00;13.07;;;;;;;19.42;68.60;101913.06;5210431;28;20021;-72
2022/05/04 10:07:59;;;;;;;35.85;13.90;;;;;;;19.95;59.57;101907.97;5210863;28;20071;-72
2022/05/04 10:10:30;;;;;;;29.30;12.40;;;;;;;20.23;60.54;101909.72;5207046;28;20390;-72
2022/05/04 10:13:02;;;;;;;20.75;11.45;;;;;;;20.24;55.26;101901.38;5212306;28;20029;-72
2022/05/04 10:15:34;;;;;;;24.42;12.38;;;;;;;19.85;59.90;101910.22;5204466;28;20024;-72
2022/05/04 10:18:11;;;;;;;24.65;12.88;;;;;;;20.15;58.84;101908.88;5209631;28;20057;-72
2022/05/04 10:20:45;;;;;;;23.10;12.27;;;;;;;20.44;56.14;101894.09;5204192;28;20063;-71
2022/05/04 10:23:37;;;;;;;26.63;12.80;;;;;;;19.84;56.43;101901.22;5208532;28;20093;-72
2022/05/04 10:26:11;;;;;;;21.27;11.63;;;;;;;19.87;58.07;101903.50;5203104;28;20029;-71
2022/05/04 10:30:29;;;;;;;29.50;13.13;;;;;;;19.39;62.72;101903.44;5209566;28;20054;-71
2022/05/04 10:31:34;;;;;;;27.02;12.15;;;;;;;19.40;60.00;101904.28;5205803;28;20388;-72
2022/05/04 10:34:23;;;;;;;24.88;12.32;;;;;;;19.72;59.16;101907.41;5202138;28;20032;-72
2022/05/04 10:36:53;;;;;;;25.15;11.75;;;;;;;20.04;59.92;101900.47;5200845;28;20052;-72
2022/05/04 10:39:24;;;;;;;23.67;11.23;;;;;;;20.52;56.39;101900.41;5207626;28;20061;-72
2022/05/04 10:41:55;;;;;;;18.42;10.23;;;;;;;20.29;54.99;101903.50;5218072;28;20017;-72
2022/05/04 10:44:50;;;;;;;23.58;10.77;;;;;;;20.04;56.77;101895.84;5212461;28;20033;-72
2022/05/04 10:47:22;;;;;;;25.45;11.75;;;;;;;19.90;56.12;101892.22;5203923;28;20378;-72
2022/05/04 10:49:59;;;;;;;27.15;12.40;;;;;;;19.79;58.75;101898.25;5208788;28;20036;-72
2022/05/04 10:52:31;;;;;;;25.73;12.05;;;;;;;20.20;59.07;101894.66;5213546;28;20036;-72
2022/05/04 10:55:05;;;;;;;23.45;11.13;;;;;;;20.72;57.51;101887.66;5212554;28;20075;-72
2022/05/04 10:57:54;;;;;;;25.30;12.95;;;;;;;20.76;54.99;101891.66;5210969;28;20043;-72
2022/05/04 11:00:24;;;;;;;21.75;11.50;;;;;;;20.50;56.44;101887.00;5217208;28;20036;-72
2022/05/04 11:02:56;;;;;;;25.02;12.63;;;;;;;19.66;56.59;101887.28;5208929;28;20017;-72
2022/05/04 11:05:45;;;;;;;22.60;11.52;;;;;;;19.33;60.95;101878.91;5205698;28;20095;-72
2022/05/04 11:08:25;;;;;;;25.23;11.88;;;;;;;19.97;56.36;101883.25;5213744;28;20033;-72
2022/05/04 11:10:58;;;;;;;25.25;12.02;;;;;;;19.99;56.80;101881.19;5206957;28;20029;-72
2022/05/04 11:13:30;;;;;;;26.77;12.75;;;;;;;19.79;63.59;101884.66;5210832;28;20033;-72
2022/05/04 11:16:01;;;;;;;29.33;12.13;;;;;;;19.40;60.63;101877.91;5209155;28;20018;-72
2022/05/04 11:18:33;;;;;;;21.38;11.70;;;;;;;19.85;60.08;101883.81;5212212;28;20023;-71
2022/05/04 11:21:05;;;;;;;30.92;13.23;;;;;;;19.61;58.44;101878.88;5210838;28;20039;-72
2022/05/04 11:23:37;;;;;;;29.52;12.65;;;;;;;19.32;61.85;101875.31;5210717;28;20102;-71
2022/05/04 11:26:17;;;;;;;33.15;12.55;;;;;;;19.68;63.18;101877.06;5218259;28;20018;-72
2022/05/04 11:28:49;;;;;;;28.42;12.40;;;;;;;19.76;62.60;101868.69;5209247;28;20029;-71
2022/05/04 11:31:21;;;;;;;27.60;12.90;;;;;;;20.10;58.66;101862.34;5208175;28;20045;-71
2022/05/04 11:33:51;;;;;;;31.65;12.45;;;;;;;20.16;56.50;101858.78;5216471;28;20028;-72
2022/05/04 11:36:22;;;;;;;21.33;11.63;;;;;;;19.90;57.38;101861.44;5213849;28;20025;-72
2022/05/04 11:38:53;;;;;;;27.77;12.75;;;;;;;19.96;57.28;101855.16;5216762;28;20021;-72
2022/05/04 11:41:23;;;;;;;24.27;12.52;;;;;;;20.29;60.28;101858.00;5214047;28;20052;-71
2022/05/04 11:43:54;;;;;;;34.65;12.82;;;;;;;20.52;62.51;101851.34;5211752;28;20021;-72
2022/05/04 11:46:25;;;;;;;25.77;12.75;;;;;;;20.48;57.46;101850.09;5216369;28;20086;-72
2022/05/04 11:48:57;;;;;;;24.20;11.90;;;;;;;20.39;56.29;101846.72;5215919;28;20048;-72
2022/05/04 11:51:27;;;;;;;24.92;11.88;;;;;;;20.83;55.50;101857.03;5210890;28;20109;-72
2022/05/04 11:53:58;;;;;;;25.55;10.65;;;;;;;21.13;52.25;101854.72;5214672;28;20048;-72
2022/05/04 11:56:28;;;;;;;23.80;11.07;;;;;;;21.07;51.70;101854.72;5213725;28;20025;-72
2022/05/04 11:58:59;;;;;;;21.17;10.43;;;;;;;20.68;50.54;101837.31;5210122;28;20029;-71
2022/05/04 12:01:30;;;;;;;25.45;12.48;;;;;;;20.69;58.09;101844.47;5204821;28;20030;-72
2022/05/04 12:04:02;;;;;;;31.15;12.25;;;;;;;20.89;52.35;101848.03;5208962;28;20028;-72
2022/05/04 12:06:34;;;;;;;31.80;12.13;;;;;;;20.78;55.18;101848.63;5210634;28;20021;-72